sensor_id;sensor_type;location;lat;lon;timestamp;temperature;humidity
3602;DHT22;1815;50.950;6.920;2022-08-01T00:01:03;24.50;99.90
3602;DHT22;1815;50.950;6.920;2022-08-01T00:03:29;24.50;99.90
3602;DHT22;1815;50.950;6.920;2022-08-01T00:05:55;24.50;99.90
3602;DHT22;1815;50.950;6.920;2022-08-01T00:08:21;24.50;99.90
3602;DHT22;1815;50.950;6.920;2022-08-01T00:10:46;24.50;99.90
3602;DHT22;1815;50.950;6.920;2022-08-01T00:13:12;24.50;99.90
3602;DHT22;1815;50.950;6.920;2022-08-01T00:15:38;24.40;99.90
3602;DHT22;1815;50.950;6.920;2022-08-01T00:18:04;24.40;99.90
3602;DHT22;1815;50.950;6.920;2022-08-01T00:20:30;24.30;99.90
3602;DHT22;1815;50.950;6.920;2022-08-01T00:22:55;24.30;99.90
3602;DHT22;1815;50.950;6.920;2022-08-01T00:25:21;24.30;99.90
3602;DHT22;1815;50.950;6.920;2022-08-01T00:27:47;24.30;99.90
3602;DHT22;1815;50.950;6.920;2022-08-01T00:30:12;24.30;99.90
3602;DHT22;1815;50.950;6.920;2022-08-01T00:32:38;24.30;99.90
3602;DHT22;1815;50.950;6.920;2022-08-01T00:35:04;24.30;99.90
3602;DHT22;1815;50.950;6.920;2022-08-01T00:37:30;24.30;99.90
3602;DHT22;1815;50.950;6.920;2022-08-01T00:39:56;24.30;99.90
3602;DHT22;1815;50.950;6.920;2022-08-01T00:42:21;24.30;99.90
3602;DHT22;1815;50.950;6.920;2022-08-01T00:44:47;24.30;99.90
3602;DHT22;1815;50.950;6.920;2022-08-01T00:47:13;24.30;99.90
3602;DHT22;1815;50.950;6.920;2022-08-01T00:49:39;24.30;99.90
3602;DHT22;1815;50.950;6.920;2022-08-01T00:52:05;24.30;99.90
3602;DHT22;1815;50.950;6.920;2022-08-01T00:54:31;24.30;99.90
3602;DHT22;1815;50.950;6.920;2022-08-01T00:56:57;24.30;99.90
3602;DHT22;1815;50.950;6.920;2022-08-01T00:59:23;24.20;99.90
3602;DHT22;1815;50.950;6.920;2022-08-01T01:01:50;24.20;99.90
3602;DHT22;1815;50.950;6.920;2022-08-01T01:04:16;24.20;99.90
3602;DHT22;1815;50.950;6.920;2022-08-01T01:07:06;24.20;99.90
3602;DHT22;1815;50.950;6.920;2022-08-01T01:20:08;23.90;99.90
3602;DHT22;1815;50.950;6.920;2022-08-01T01:25:32;23.80;99.90
3602;DHT22;1815;50.950;6.920;2022-08-01T01:30:31;23.80;99.90
3602;DHT22;1815;50.950;6.920;2022-08-01T01:33:03;23.80;99.90
3602;DHT22;1815;50.950;6.920;2022-08-01T01:35:34;23.70;99.90
3602;DHT22;1815;50.950;6.920;2022-08-01T01:38:21;23.70;99.90
3602;DHT22;1815;50.950;6.920;2022-08-01T01:40:49;23.70;99.90
3602;DHT22;1815;50.950;6.920;2022-08-01T01:43:17;23.70;99.90
3602;DHT22;1815;50.950;6.920;2022-08-01T01:45:45;23.70;99.90
3602;DHT22;1815;50.950;6.920;2022-08-01T01:48:14;23.70;99.90
3602;DHT22;1815;50.950;6.920;2022-08-01T01:50:42;23.60;99.90
3602;DHT22;1815;50.950;6.920;2022-08-01T01:53:10;23.60;99.90
3602;DHT22;1815;50.950;6.920;2022-08-01T01:55:39;23.70;99.90
3602;DHT22;1815;50.950;6.920;2022-08-01T01:58:07;23.70;99.90
3602;DHT22;1815;50.950;6.920;2022-08-01T02:00:35;23.60;99.90
3602;DHT22;1815;50.950;6.920;2022-08-01T02:03:04;23.60;99.90
3602;DHT22;1815;50.950;6.920;2022-08-01T02:05:31;23.60;99.90
3602;DHT22;1815;50.950;6.920;2022-08-01T02:08:01;23.60;99.90
3602;DHT22;1815;50.950;6.920;2022-08-01T02:10:29;23.60;99.90
3602;DHT22;1815;50.950;6.920;2022-08-01T02:12:57;23.60;99.90
3602;DHT22;1815;50.950;6.920;2022-08-01T02:15:23;23.60;99.90
3602;DHT22;1815;50.950;6.920;2022-08-01T02:17:51;23.60;99.90
3602;DHT22;1815;50.950;6.920;2022-08-01T02:20:19;23.60;99.90
3602;DHT22;1815;50.950;6.920;2022-08-01T02:22:54;23.50;99.90
3602;DHT22;1815;50.950;6.920;2022-08-01T02:25:46;23.50;99.90
3602;DHT22;1815;50.950;6.920;2022-08-01T02:28:17;23.50;99.90
3602;DHT22;1815;50.950;6.920;2022-08-01T02:30:47;23.50;99.90
3602;DHT22;1815;50.950;6.920;2022-08-01T02:33:17;23.50;99.90
3602;DHT22;1815;50.950;6.920;2022-08-01T02:35:50;23.50;99.90
3602;DHT22;1815;50.950;6.920;2022-08-01T02:38:17;23.50;99.90
3602;DHT22;1815;50.950;6.920;2022-08-01T02:40:47;23.40;99.90
3602;DHT22;1815;50.950;6.920;2022-08-01T02:43:18;23.40;99.90
3602;DHT22;1815;50.950;6.920;2022-08-01T02:45:49;23.40;99.90
3602;DHT22;1815;50.950;6.920;2022-08-01T02:48:18;23.40;99.90
3602;DHT22;1815;50.950;6.920;2022-08-01T02:50:47;23.40;99.90
3602;DHT22;1815;50.950;6.920;2022-08-01T02:53:16;23.40;99.90
3602;DHT22;1815;50.950;6.920;2022-08-01T02:55:42;23.30;99.90
3602;DHT22;1815;50.950;6.920;2022-08-01T02:58:12;23.30;99.90
3602;DHT22;1815;50.950;6.920;2022-08-01T03:00:42;23.30;99.90
3602;DHT22;1815;50.950;6.920;2022-08-01T03:03:09;23.30;99.90
3602;DHT22;1815;50.950;6.920;2022-08-01T03:05:35;23.30;99.90
3602;DHT22;1815;50.950;6.920;2022-08-01T03:08:03;23.20;99.90
3602;DHT22;1815;50.950;6.920;2022-08-01T03:10:30;23.20;99.90
3602;DHT22;1815;50.950;6.920;2022-08-01T03:12:59;23.30;99.90
3602;DHT22;1815;50.950;6.920;2022-08-01T03:15:26;23.20;99.90
3602;DHT22;1815;50.950;6.920;2022-08-01T03:17:55;23.20;99.90
3602;DHT22;1815;50.950;6.920;2022-08-01T03:20:25;23.30;99.90
3602;DHT22;1815;50.950;6.920;2022-08-01T03:22:53;23.30;99.90
3602;DHT22;1815;50.950;6.920;2022-08-01T03:25:20;23.30;99.90
3602;DHT22;1815;50.950;6.920;2022-08-01T03:27:51;23.30;99.90
3602;DHT22;1815;50.950;6.920;2022-08-01T03:30:21;23.30;99.90
3602;DHT22;1815;50.950;6.920;2022-08-01T03:32:47;23.30;99.90
3602;DHT22;1815;50.950;6.920;2022-08-01T03:35:13;23.30;99.90
3602;DHT22;1815;50.950;6.920;2022-08-01T03:37:46;23.30;99.90
3602;DHT22;1815;50.950;6.920;2022-08-01T03:40:36;23.20;99.90
3602;DHT22;1815;50.950;6.920;2022-08-01T03:43:07;23.20;99.90
3602;DHT22;1815;50.950;6.920;2022-08-01T03:45:38;23.20;99.90
3602;DHT22;1815;50.950;6.920;2022-08-01T03:48:14;23.20;99.90
3602;DHT22;1815;50.950;6.920;2022-08-01T03:50:45;23.20;99.90
3602;DHT22;1815;50.950;6.920;2022-08-01T03:53:11;23.20;99.90
3602;DHT22;1815;50.950;6.920;2022-08-01T03:55:39;23.20;99.90
3602;DHT22;1815;50.950;6.920;2022-08-01T03:58:07;23.20;99.90
3602;DHT22;1815;50.950;6.920;2022-08-01T04:00:36;23.20;99.90
3602;DHT22;1815;50.950;6.920;2022-08-01T04:03:05;23.20;99.90
3602;DHT22;1815;50.950;6.920;2022-08-01T04:05:32;23.20;99.90
3602;DHT22;1815;50.950;6.920;2022-08-01T04:07:57;23.20;99.90
3602;DHT22;1815;50.950;6.920;2022-08-01T04:10:25;23.20;99.90
3602;DHT22;1815;50.950;6.920;2022-08-01T04:12:51;23.20;99.90
3602;DHT22;1815;50.950;6.920;2022-08-01T04:15:17;23.20;99.90
3602;DHT22;1815;50.950;6.920;2022-08-01T04:17:43;23.20;99.90
3602;DHT22;1815;50.950;6.920;2022-08-01T04:20:10;23.30;99.90
3602;DHT22;1815;50.950;6.920;2022-08-01T04:22:36;23.30;99.90
3602;DHT22;1815;50.950;6.920;2022-08-01T04:25:07;23.30;99.90
3602;DHT22;1815;50.950;6.920;2022-08-01T04:27:37;23.30;99.90
3602;DHT22;1815;50.950;6.920;2022-08-01T04:30:05;23.30;99.90
3602;DHT22;1815;50.950;6.920;2022-08-01T04:32:34;23.30;99.90
3602;DHT22;1815;50.950;6.920;2022-08-01T04:35:04;23.40;99.90
3602;DHT22;1815;50.950;6.920;2022-08-01T04:37:31;23.30;99.90
3602;DHT22;1815;50.950;6.920;2022-08-01T04:40:00;23.30;99.90
3602;DHT22;1815;50.950;6.920;2022-08-01T04:42:26;23.30;99.90
3602;DHT22;1815;50.950;6.920;2022-08-01T04:44:53;23.30;99.90
3602;DHT22;1815;50.950;6.920;2022-08-01T04:47:19;23.40;99.90
3602;DHT22;1815;50.950;6.920;2022-08-01T04:49:46;23.30;99.90
3602;DHT22;1815;50.950;6.920;2022-08-01T04:52:12;23.30;99.90
3602;DHT22;1815;50.950;6.920;2022-08-01T04:54:38;23.30;99.90
3602;DHT22;1815;50.950;6.920;2022-08-01T04:57:04;23.40;99.90
3602;DHT22;1815;50.950;6.920;2022-08-01T04:59:32;23.30;99.90
3602;DHT22;1815;50.950;6.920;2022-08-01T05:02:08;23.40;99.90
3602;DHT22;1815;50.950;6.920;2022-08-01T05:04:34;23.40;99.90
3602;DHT22;1815;50.950;6.920;2022-08-01T05:07:01;23.40;99.90
3602;DHT22;1815;50.950;6.920;2022-08-01T05:09:27;23.40;99.90
3602;DHT22;1815;50.950;6.920;2022-08-01T05:11:53;23.40;99.90
3602;DHT22;1815;50.950;6.920;2022-08-01T05:14:18;23.40;99.90
3602;DHT22;1815;50.950;6.920;2022-08-01T05:16:45;23.40;99.90
3602;DHT22;1815;50.950;6.920;2022-08-01T05:19:11;23.40;99.90
3602;DHT22;1815;50.950;6.920;2022-08-01T05:21:37;23.40;99.90
3602;DHT22;1815;50.950;6.920;2022-08-01T05:24:04;23.50;99.90
3602;DHT22;1815;50.950;6.920;2022-08-01T05:26:31;23.50;99.90
3602;DHT22;1815;50.950;6.920;2022-08-01T05:28:57;23.50;99.90
3602;DHT22;1815;50.950;6.920;2022-08-01T05:31:22;23.50;99.90
3602;DHT22;1815;50.950;6.920;2022-08-01T05:33:48;23.50;99.90
3602;DHT22;1815;50.950;6.920;2022-08-01T05:36:14;23.50;99.90
3602;DHT22;1815;50.950;6.920;2022-08-01T05:38:40;23.50;99.90
3602;DHT22;1815;50.950;6.920;2022-08-01T05:41:06;23.40;99.90
3602;DHT22;1815;50.950;6.920;2022-08-01T05:43:31;23.40;99.90
3602;DHT22;1815;50.950;6.920;2022-08-01T05:45:57;23.30;99.90
3602;DHT22;1815;50.950;6.920;2022-08-01T05:48:24;23.30;99.90
3602;DHT22;1815;50.950;6.920;2022-08-01T05:50:50;23.30;99.90
3602;DHT22;1815;50.950;6.920;2022-08-01T05:53:16;23.20;99.90
3602;DHT22;1815;50.950;6.920;2022-08-01T05:55:42;23.20;99.90
3602;DHT22;1815;50.950;6.920;2022-08-01T05:58:08;23.20;99.90
3602;DHT22;1815;50.950;6.920;2022-08-01T06:00:33;23.20;99.90
3602;DHT22;1815;50.950;6.920;2022-08-01T06:02:59;23.20;99.90
3602;DHT22;1815;50.950;6.920;2022-08-01T06:05:25;23.20;99.90
3602;DHT22;1815;50.950;6.920;2022-08-01T06:07:51;23.30;99.90
3602;DHT22;1815;50.950;6.920;2022-08-01T06:10:17;23.30;99.90
3602;DHT22;1815;50.950;6.920;2022-08-01T06:12:42;23.50;99.90
3602;DHT22;1815;50.950;6.920;2022-08-01T06:15:08;23.90;99.90
3602;DHT22;1815;50.950;6.920;2022-08-01T06:17:35;24.40;99.90
3602;DHT22;1815;50.950;6.920;2022-08-01T06:20:00;24.70;99.90
3602;DHT22;1815;50.950;6.920;2022-08-01T06:22:26;24.90;99.90
3602;DHT22;1815;50.950;6.920;2022-08-01T06:24:52;25.00;99.90
3602;DHT22;1815;50.950;6.920;2022-08-01T06:27:19;25.30;99.90
3602;DHT22;1815;50.950;6.920;2022-08-01T06:29:44;25.50;99.90
3602;DHT22;1815;50.950;6.920;2022-08-01T06:32:10;25.60;99.90
3602;DHT22;1815;50.950;6.920;2022-08-01T06:34:36;25.70;99.90
3602;DHT22;1815;50.950;6.920;2022-08-01T06:37:02;25.70;99.90
3602;DHT22;1815;50.950;6.920;2022-08-01T06:39:28;25.80;99.90
3602;DHT22;1815;50.950;6.920;2022-08-01T06:41:53;25.70;99.90
3602;DHT22;1815;50.950;6.920;2022-08-01T06:44:19;25.80;99.90
3602;DHT22;1815;50.950;6.920;2022-08-01T06:46:45;25.90;99.90
3602;DHT22;1815;50.950;6.920;2022-08-01T06:49:10;25.90;99.90
3602;DHT22;1815;50.950;6.920;2022-08-01T06:51:36;26.00;99.90
3602;DHT22;1815;50.950;6.920;2022-08-01T06:54:02;26.00;99.90
3602;DHT22;1815;50.950;6.920;2022-08-01T06:56:28;26.00;99.90
3602;DHT22;1815;50.950;6.920;2022-08-01T06:58:54;26.00;99.90
3602;DHT22;1815;50.950;6.920;2022-08-01T07:01:27;26.10;99.90
3602;DHT22;1815;50.950;6.920;2022-08-01T07:03:53;26.10;99.90
3602;DHT22;1815;50.950;6.920;2022-08-01T07:06:21;26.10;99.90
3602;DHT22;1815;50.950;6.920;2022-08-01T07:08:46;26.00;99.90
3602;DHT22;1815;50.950;6.920;2022-08-01T07:11:12;26.00;99.90
3602;DHT22;1815;50.950;6.920;2022-08-01T07:13:38;26.00;99.90
3602;DHT22;1815;50.950;6.920;2022-08-01T07:16:04;26.00;99.90
3602;DHT22;1815;50.950;6.920;2022-08-01T07:18:30;25.90;99.90
3602;DHT22;1815;50.950;6.920;2022-08-01T07:20:55;25.90;99.90
3602;DHT22;1815;50.950;6.920;2022-08-01T07:23:21;25.90;99.90
3602;DHT22;1815;50.950;6.920;2022-08-01T07:25:47;26.00;99.90
3602;DHT22;1815;50.950;6.920;2022-08-01T07:28:15;26.00;99.90
3602;DHT22;1815;50.950;6.920;2022-08-01T07:30:41;26.00;99.90
3602;DHT22;1815;50.950;6.920;2022-08-01T07:33:07;26.10;99.90
3602;DHT22;1815;50.950;6.920;2022-08-01T07:35:33;26.30;99.90
3602;DHT22;1815;50.950;6.920;2022-08-01T07:37:59;26.30;99.90
3602;DHT22;1815;50.950;6.920;2022-08-01T07:40:25;26.50;99.90
3602;DHT22;1815;50.950;6.920;2022-08-01T07:42:51;27.00;99.90
3602;DHT22;1815;50.950;6.920;2022-08-01T07:45:17;27.60;99.90
3602;DHT22;1815;50.950;6.920;2022-08-01T07:47:43;28.00;99.90
3602;DHT22;1815;50.950;6.920;2022-08-01T07:50:09;28.30;99.90
3602;DHT22;1815;50.950;6.920;2022-08-01T07:52:34;28.60;99.90
3602;DHT22;1815;50.950;6.920;2022-08-01T07:55:00;28.70;99.90
3602;DHT22;1815;50.950;6.920;2022-08-01T07:57:26;28.80;99.90
3602;DHT22;1815;50.950;6.920;2022-08-01T07:59:52;28.70;99.90
3602;DHT22;1815;50.950;6.920;2022-08-01T08:02:18;28.70;99.90
3602;DHT22;1815;50.950;6.920;2022-08-01T08:04:44;29.00;99.90
3602;DHT22;1815;50.950;6.920;2022-08-01T08:07:09;29.50;99.90
3602;DHT22;1815;50.950;6.920;2022-08-01T08:09:35;29.70;99.90
3602;DHT22;1815;50.950;6.920;2022-08-01T08:12:01;29.80;99.90
3602;DHT22;1815;50.950;6.920;2022-08-01T08:14:27;29.80;99.90
3602;DHT22;1815;50.950;6.920;2022-08-01T08:16:52;29.70;99.90
3602;DHT22;1815;50.950;6.920;2022-08-01T08:19:18;29.80;99.90
3602;DHT22;1815;50.950;6.920;2022-08-01T08:21:44;30.30;99.90
3602;DHT22;1815;50.950;6.920;2022-08-01T08:24:10;31.20;99.90
3602;DHT22;1815;50.950;6.920;2022-08-01T08:26:46;31.90;99.90
3602;DHT22;1815;50.950;6.920;2022-08-01T08:29:12;32.50;99.90
3602;DHT22;1815;50.950;6.920;2022-08-01T08:31:37;32.80;99.90
3602;DHT22;1815;50.950;6.920;2022-08-01T08:34:03;32.90;99.90
3602;DHT22;1815;50.950;6.920;2022-08-01T08:36:29;32.90;99.30
3602;DHT22;1815;50.950;6.920;2022-08-01T08:38:56;32.80;98.30
3602;DHT22;1815;50.950;6.920;2022-08-01T08:41:22;32.60;97.50
3602;DHT22;1815;50.950;6.920;2022-08-01T08:43:48;32.40;97.10
3602;DHT22;1815;50.950;6.920;2022-08-01T08:46:14;32.20;96.70
3602;DHT22;1815;50.950;6.920;2022-08-01T08:48:41;32.00;96.20
3602;DHT22;1815;50.950;6.920;2022-08-01T08:51:08;31.80;96.20
3602;DHT22;1815;50.950;6.920;2022-08-01T08:53:37;31.70;96.20
3602;DHT22;1815;50.950;6.920;2022-08-01T08:56:06;31.50;95.80
3602;DHT22;1815;50.950;6.920;2022-08-01T08:58:33;31.30;95.60
3602;DHT22;1815;50.950;6.920;2022-08-01T09:01:05;31.20;95.70
3602;DHT22;1815;50.950;6.920;2022-08-01T09:03:32;31.10;95.60
3602;DHT22;1815;50.950;6.920;2022-08-01T09:05:58;31.00;95.40
3602;DHT22;1815;50.950;6.920;2022-08-01T09:08:24;30.90;95.50
3602;DHT22;1815;50.950;6.920;2022-08-01T09:10:50;30.80;95.50
3602;DHT22;1815;50.950;6.920;2022-08-01T09:13:15;30.80;95.60
3602;DHT22;1815;50.950;6.920;2022-08-01T09:15:47;30.70;95.40
3602;DHT22;1815;50.950;6.920;2022-08-01T09:18:39;30.70;95.40
3602;DHT22;1815;50.950;6.920;2022-08-01T09:21:12;30.70;95.00
3602;DHT22;1815;50.950;6.920;2022-08-01T09:23:53;30.70;95.20
3602;DHT22;1815;50.950;6.920;2022-08-01T09:26:27;30.60;95.30
3602;DHT22;1815;50.950;6.920;2022-08-01T09:28:54;30.60;95.40
3602;DHT22;1815;50.950;6.920;2022-08-01T09:31:20;30.60;95.50
3602;DHT22;1815;50.950;6.920;2022-08-01T09:33:57;30.60;95.30
3602;DHT22;1815;50.950;6.920;2022-08-01T09:36:25;30.40;95.30
3602;DHT22;1815;50.950;6.920;2022-08-01T09:38:52;30.30;94.80
3602;DHT22;1815;50.950;6.920;2022-08-01T09:41:30;30.20;94.60
3602;DHT22;1815;50.950;6.920;2022-08-01T09:43:57;30.10;94.60
3602;DHT22;1815;50.950;6.920;2022-08-01T09:46:23;30.20;95.20
3602;DHT22;1815;50.950;6.920;2022-08-01T09:49:03;30.60;96.20
3602;DHT22;1815;50.950;6.920;2022-08-01T09:51:35;31.30;96.40
3602;DHT22;1815;50.950;6.920;2022-08-01T09:54:02;31.80;95.70
3602;DHT22;1815;50.950;6.920;2022-08-01T09:56:41;32.20;94.70
3602;DHT22;1815;50.950;6.920;2022-08-01T09:59:08;32.40;93.60
3602;DHT22;1815;50.950;6.920;2022-08-01T10:01:48;32.60;93.40
3602;DHT22;1815;50.950;6.920;2022-08-01T10:04:21;32.80;92.40
3602;DHT22;1815;50.950;6.920;2022-08-01T10:06:50;32.90;92.10
3602;DHT22;1815;50.950;6.920;2022-08-01T10:09:29;33.10;91.50
3602;DHT22;1815;50.950;6.920;2022-08-01T10:11:55;33.20;91.30
3602;DHT22;1815;50.950;6.920;2022-08-01T10:14:24;33.30;90.60
3602;DHT22;1815;50.950;6.920;2022-08-01T10:16:52;33.30;89.60
3602;DHT22;1815;50.950;6.920;2022-08-01T10:19:22;33.30;88.70
3602;DHT22;1815;50.950;6.920;2022-08-01T10:21:50;33.20;87.30
3602;DHT22;1815;50.950;6.920;2022-08-01T10:24:23;33.10;86.90
3602;DHT22;1815;50.950;6.920;2022-08-01T10:26:52;32.90;85.50
3602;DHT22;1815;50.950;6.920;2022-08-01T10:29:21;32.70;85.20
3602;DHT22;1815;50.950;6.920;2022-08-01T10:31:48;32.60;85.30
3602;DHT22;1815;50.950;6.920;2022-08-01T10:34:14;32.40;84.70
3602;DHT22;1815;50.950;6.920;2022-08-01T10:36:43;32.30;85.40
3602;DHT22;1815;50.950;6.920;2022-08-01T10:39:12;32.50;86.70
3602;DHT22;1815;50.950;6.920;2022-08-01T10:41:39;32.80;86.30
3602;DHT22;1815;50.950;6.920;2022-08-01T10:44:07;33.10;85.50
3602;DHT22;1815;50.950;6.920;2022-08-01T10:46:37;33.20;83.70
3602;DHT22;1815;50.950;6.920;2022-08-01T10:51:36;33.30;82.90
3602;DHT22;1815;50.950;6.920;2022-08-01T10:54:06;33.70;84.60
3602;DHT22;1815;50.950;6.920;2022-08-01T10:56:59;34.10;84.60
3602;DHT22;1815;50.950;6.920;2022-08-01T10:59:29;34.70;84.90
3602;DHT22;1815;50.950;6.920;2022-08-01T11:02:02;35.10;82.10
3602;DHT22;1815;50.950;6.920;2022-08-01T11:04:51;35.30;78.70
3602;DHT22;1815;50.950;6.920;2022-08-01T11:07:24;35.40;76.90
3602;DHT22;1815;50.950;6.920;2022-08-01T11:10:10;35.30;75.00
3602;DHT22;1815;50.950;6.920;2022-08-01T11:12:42;35.00;73.50
3602;DHT22;1815;50.950;6.920;2022-08-01T11:17:38;34.50;71.70
3602;DHT22;1815;50.950;6.920;2022-08-01T11:20:25;34.20;71.30
3602;DHT22;1815;50.950;6.920;2022-08-01T11:41:27;34.20;71.40
3602;DHT22;1815;50.950;6.920;2022-08-01T11:44:07;34.20;70.80
3602;DHT22;1815;50.950;6.920;2022-08-01T11:46:56;34.20;69.60
3602;DHT22;1815;50.950;6.920;2022-08-01T11:54:40;33.80;66.90
3602;DHT22;1815;50.950;6.920;2022-08-01T11:57:12;33.70;66.30
3602;DHT22;1815;50.950;6.920;2022-08-01T11:59:44;33.70;65.40
3602;DHT22;1815;50.950;6.920;2022-08-01T12:04:55;33.90;65.80
3602;DHT22;1815;50.950;6.920;2022-08-01T12:07:21;34.00;65.50
3602;DHT22;1815;50.950;6.920;2022-08-01T12:09:48;33.90;64.30
3602;DHT22;1815;50.950;6.920;2022-08-01T12:12:17;33.90;63.70
3602;DHT22;1815;50.950;6.920;2022-08-01T12:14:45;33.70;62.80
3602;DHT22;1815;50.950;6.920;2022-08-01T12:17:11;33.50;62.70
3602;DHT22;1815;50.950;6.920;2022-08-01T12:19:37;33.30;62.80
3602;DHT22;1815;50.950;6.920;2022-08-01T12:24:30;32.80;63.60
3602;DHT22;1815;50.950;6.920;2022-08-01T12:26:56;32.60;64.10
3602;DHT22;1815;50.950;6.920;2022-08-01T12:29:36;32.40;64.60
3602;DHT22;1815;50.950;6.920;2022-08-01T12:32:03;32.40;65.30
3602;DHT22;1815;50.950;6.920;2022-08-01T12:34:30;32.40;65.90
3602;DHT22;1815;50.950;6.920;2022-08-01T12:37:01;32.40;64.80
3602;DHT22;1815;50.950;6.920;2022-08-01T12:39:30;32.30;64.30
3602;DHT22;1815;50.950;6.920;2022-08-01T12:41:57;32.30;64.00
3602;DHT22;1815;50.950;6.920;2022-08-01T12:44:22;32.10;63.30
3602;DHT22;1815;50.950;6.920;2022-08-01T12:46:48;32.00;63.70
3602;DHT22;1815;50.950;6.920;2022-08-01T12:49:14;31.90;63.10
3602;DHT22;1815;50.950;6.920;2022-08-01T12:51:40;31.80;63.40
3602;DHT22;1815;50.950;6.920;2022-08-01T12:54:06;31.70;63.60
3602;DHT22;1815;50.950;6.920;2022-08-01T12:56:35;31.60;64.00
3602;DHT22;1815;50.950;6.920;2022-08-01T12:59:01;31.60;64.60
3602;DHT22;1815;50.950;6.920;2022-08-01T13:01:45;31.70;64.80
3602;DHT22;1815;50.950;6.920;2022-08-01T13:04:12;31.70;64.80
3602;DHT22;1815;50.950;6.920;2022-08-01T13:06:38;31.70;64.40
3602;DHT22;1815;50.950;6.920;2022-08-01T13:09:08;31.70;64.40
3602;DHT22;1815;50.950;6.920;2022-08-01T13:11:35;31.70;64.30
3602;DHT22;1815;50.950;6.920;2022-08-01T13:14:01;31.60;64.40
3602;DHT22;1815;50.950;6.920;2022-08-01T13:16:27;31.60;64.50
3602;DHT22;1815;50.950;6.920;2022-08-01T13:18:54;31.50;64.60
3602;DHT22;1815;50.950;6.920;2022-08-01T13:21:29;31.50;64.20
3602;DHT22;1815;50.950;6.920;2022-08-01T13:26:56;31.30;63.60
3602;DHT22;1815;50.950;6.920;2022-08-01T13:29:37;31.30;63.50
3602;DHT22;1815;50.950;6.920;2022-08-01T13:32:18;31.30;63.10
3602;DHT22;1815;50.950;6.920;2022-08-01T13:34:44;31.20;63.00
3602;DHT22;1815;50.950;6.920;2022-08-01T13:37:10;31.20;63.60
3602;DHT22;1815;50.950;6.920;2022-08-01T13:39:35;31.20;63.70
3602;DHT22;1815;50.950;6.920;2022-08-01T13:42:14;31.30;63.50
3602;DHT22;1815;50.950;6.920;2022-08-01T13:44:40;31.30;62.70
3602;DHT22;1815;50.950;6.920;2022-08-01T13:47:07;31.30;62.20
3602;DHT22;1815;50.950;6.920;2022-08-01T13:49:33;31.10;61.50
3602;DHT22;1815;50.950;6.920;2022-08-01T13:52:00;31.10;61.10
3602;DHT22;1815;50.950;6.920;2022-08-01T13:54:26;31.00;60.70
3602;DHT22;1815;50.950;6.920;2022-08-01T13:56:53;30.90;60.80
3602;DHT22;1815;50.950;6.920;2022-08-01T13:59:19;30.80;61.00
3602;DHT22;1815;50.950;6.920;2022-08-01T14:01:44;30.70;61.00
3602;DHT22;1815;50.950;6.920;2022-08-01T14:04:10;30.70;60.80
3602;DHT22;1815;50.950;6.920;2022-08-01T14:06:36;30.60;60.80
3602;DHT22;1815;50.950;6.920;2022-08-01T14:09:04;30.60;61.00
3602;DHT22;1815;50.950;6.920;2022-08-01T14:11:30;30.60;60.80
3602;DHT22;1815;50.950;6.920;2022-08-01T14:13:56;30.60;61.00
3602;DHT22;1815;50.950;6.920;2022-08-01T14:16:25;30.60;61.00
3602;DHT22;1815;50.950;6.920;2022-08-01T14:18:51;30.60;61.10
3602;DHT22;1815;50.950;6.920;2022-08-01T14:21:17;30.60;60.80
3602;DHT22;1815;50.950;6.920;2022-08-01T14:23:43;30.50;61.00
3602;DHT22;1815;50.950;6.920;2022-08-01T14:26:09;30.50;60.80
3602;DHT22;1815;50.950;6.920;2022-08-01T14:28:36;30.50;60.90
3602;DHT22;1815;50.950;6.920;2022-08-01T14:31:02;30.50;60.70
3602;DHT22;1815;50.950;6.920;2022-08-01T14:33:28;30.60;60.70
3602;DHT22;1815;50.950;6.920;2022-08-01T14:35:54;30.60;60.50
3602;DHT22;1815;50.950;6.920;2022-08-01T14:38:20;30.70;60.60
3602;DHT22;1815;50.950;6.920;2022-08-01T14:40:46;30.70;60.20
3602;DHT22;1815;50.950;6.920;2022-08-01T14:43:20;30.80;60.50
3602;DHT22;1815;50.950;6.920;2022-08-01T14:45:46;30.90;60.50
3602;DHT22;1815;50.950;6.920;2022-08-01T14:48:18;30.90;60.40
3602;DHT22;1815;50.950;6.920;2022-08-01T14:50:44;31.00;60.20
3602;DHT22;1815;50.950;6.920;2022-08-01T14:53:10;31.00;59.80
3602;DHT22;1815;50.950;6.920;2022-08-01T14:55:36;31.00;59.90
3602;DHT22;1815;50.950;6.920;2022-08-01T14:58:02;31.10;59.80
3602;DHT22;1815;50.950;6.920;2022-08-01T15:00:27;31.10;59.80
3602;DHT22;1815;50.950;6.920;2022-08-01T15:02:53;31.10;60.00
3602;DHT22;1815;50.950;6.920;2022-08-01T15:05:19;31.00;60.90
3602;DHT22;1815;50.950;6.920;2022-08-01T15:07:45;31.10;60.50
3602;DHT22;1815;50.950;6.920;2022-08-01T15:10:11;31.10;60.60
3602;DHT22;1815;50.950;6.920;2022-08-01T15:12:37;31.10;60.40
3602;DHT22;1815;50.950;6.920;2022-08-01T15:15:03;31.10;60.30
3602;DHT22;1815;50.950;6.920;2022-08-01T15:17:32;31.10;60.30
3602;DHT22;1815;50.950;6.920;2022-08-01T15:20:04;31.10;60.30
3602;DHT22;1815;50.950;6.920;2022-08-01T15:22:30;31.20;60.00
3602;DHT22;1815;50.950;6.920;2022-08-01T15:24:59;31.20;60.30
3602;DHT22;1815;50.950;6.920;2022-08-01T15:27:29;31.20;60.10
3602;DHT22;1815;50.950;6.920;2022-08-01T15:29:55;31.20;59.70
3602;DHT22;1815;50.950;6.920;2022-08-01T15:32:22;31.10;59.60
3602;DHT22;1815;50.950;6.920;2022-08-01T15:34:48;31.00;59.70
3602;DHT22;1815;50.950;6.920;2022-08-01T15:37:14;31.00;59.80
3602;DHT22;1815;50.950;6.920;2022-08-01T15:39:40;30.90;59.70
3602;DHT22;1815;50.950;6.920;2022-08-01T15:42:09;30.80;59.70
3602;DHT22;1815;50.950;6.920;2022-08-01T15:44:36;30.80;59.70
3602;DHT22;1815;50.950;6.920;2022-08-01T15:47:03;30.80;60.00
3602;DHT22;1815;50.950;6.920;2022-08-01T15:49:30;30.70;61.30
3602;DHT22;1815;50.950;6.920;2022-08-01T15:51:55;30.70;60.70
3602;DHT22;1815;50.950;6.920;2022-08-01T15:54:21;30.60;61.20
3602;DHT22;1815;50.950;6.920;2022-08-01T15:56:47;30.60;61.40
3602;DHT22;1815;50.950;6.920;2022-08-01T15:59:13;30.50;61.70
3602;DHT22;1815;50.950;6.920;2022-08-01T16:01:40;30.50;61.70
3602;DHT22;1815;50.950;6.920;2022-08-01T16:04:07;30.40;61.80
3602;DHT22;1815;50.950;6.920;2022-08-01T16:06:34;30.30;62.10
3602;DHT22;1815;50.950;6.920;2022-08-01T16:09:01;30.30;62.50
3602;DHT22;1815;50.950;6.920;2022-08-01T16:11:27;30.30;63.70
3602;DHT22;1815;50.950;6.920;2022-08-01T16:13:56;30.30;63.20
3602;DHT22;1815;50.950;6.920;2022-08-01T16:16:22;30.30;63.70
3602;DHT22;1815;50.950;6.920;2022-08-01T16:18:49;30.30;63.90
3602;DHT22;1815;50.950;6.920;2022-08-01T16:21:15;30.20;64.00
3602;DHT22;1815;50.950;6.920;2022-08-01T16:23:43;30.30;64.30
3602;DHT22;1815;50.950;6.920;2022-08-01T16:26:09;30.30;64.90
3602;DHT22;1815;50.950;6.920;2022-08-01T16:28:35;30.30;65.10
3602;DHT22;1815;50.950;6.920;2022-08-01T16:31:01;30.40;65.00
3602;DHT22;1815;50.950;6.920;2022-08-01T16:33:28;30.40;65.10
3602;DHT22;1815;50.950;6.920;2022-08-01T16:35:54;30.40;63.70
3602;DHT22;1815;50.950;6.920;2022-08-01T16:38:20;30.30;63.40
3602;DHT22;1815;50.950;6.920;2022-08-01T16:40:49;30.20;63.30
3602;DHT22;1815;50.950;6.920;2022-08-01T16:43:17;30.10;63.20
3602;DHT22;1815;50.950;6.920;2022-08-01T16:45:44;30.10;63.20
3602;DHT22;1815;50.950;6.920;2022-08-01T16:48:10;29.90;63.20
3602;DHT22;1815;50.950;6.920;2022-08-01T16:50:36;29.80;63.80
3602;DHT22;1815;50.950;6.920;2022-08-01T16:53:02;29.70;64.50
3602;DHT22;1815;50.950;6.920;2022-08-01T16:55:31;29.60;64.90
3602;DHT22;1815;50.950;6.920;2022-08-01T16:57:57;29.50;65.50
3602;DHT22;1815;50.950;6.920;2022-08-01T17:00:23;29.40;65.60